createdAt,value
2023-04-07T00:00:28.220Z,63.73
2023-04-07T00:02:57.373Z,63.74
2023-04-07T00:05:25.436Z,63.74
2023-04-07T00:07:56.939Z,63.78
2023-04-07T00:10:25.906Z,64.14
2023-04-07T00:12:54.034Z,64.05
2023-04-07T00:15:22.303Z,63.80
2023-04-07T00:17:51.911Z,63.83
2023-04-07T00:20:20.208Z,63.78
2023-04-07T00:22:48.681Z,63.84
2023-04-07T00:25:17.053Z,63.85
2023-04-07T00:27:45.542Z,64.18
2023-04-07T00:30:15.472Z,64.54
2023-04-07T00:32:43.910Z,64.84
2023-04-07T00:35:15.493Z,65.17
2023-04-07T00:37:43.536Z,65.50
2023-04-07T00:40:12.350Z,66.01
2023-04-07T00:42:41.218Z,66.34
2023-04-07T00:45:11.619Z,66.81
2023-04-07T00:47:41.289Z,66.77
2023-04-07T00:50:10.443Z,66.41
2023-04-07T00:52:41.113Z,66.41
2023-04-07T00:55:10.138Z,66.63
2023-04-07T00:57:38.865Z,66.67
2023-04-07T01:00:09.392Z,66.62
2023-04-07T01:02:42.958Z,66.40
2023-04-07T01:05:17.520Z,66.55
2023-04-07T01:07:52.529Z,67.05
2023-04-07T01:10:23.505Z,67.52
2023-04-07T01:12:56.229Z,67.69
2023-04-07T01:15:25.078Z,67.79
2023-04-07T01:17:57.993Z,67.80
2023-04-07T01:20:28.261Z,67.91
2023-04-07T01:23:00.195Z,67.97
2023-04-07T01:25:37.831Z,68.20
2023-04-07T01:28:22.167Z,68.67
2023-04-07T01:30:52.798Z,68.87
2023-04-07T01:33:21.586Z,68.83
2023-04-07T01:35:51.446Z,69.02
2023-04-07T01:38:20.303Z,69.09
2023-04-07T01:40:48.993Z,69.07
2023-04-07T01:43:17.640Z,69.30
2023-04-07T01:45:47.256Z,69.21
2023-04-07T01:48:17.364Z,69.50
2023-04-07T01:50:46.211Z,69.65
2023-04-07T01:53:15.429Z,69.57
2023-04-07T01:55:44.655Z,69.32
2023-04-07T01:58:12.706Z,69.11
2023-04-07T02:00:40.802Z,68.84
2023-04-07T02:03:13.329Z,68.20
2023-04-07T02:05:43.252Z,68.22
2023-04-07T02:08:12.596Z,68.15
2023-04-07T02:10:42.241Z,68.51
2023-04-07T02:13:14.764Z,68.63
2023-04-07T02:15:45.450Z,68.51
2023-04-07T02:18:14.728Z,68.80
2023-04-07T02:20:45.459Z,68.90
2023-04-07T02:23:14.893Z,69.31
2023-04-07T02:25:43.109Z,69.56
2023-04-07T02:28:11.397Z,69.36
2023-04-07T02:30:39.441Z,69.29
2023-04-07T02:33:12.519Z,69.22
2023-04-07T02:35:40.850Z,69.21
2023-04-07T02:38:10.556Z,69.24
2023-04-07T02:40:38.681Z,69.19
2023-04-07T02:43:06.773Z,69.04
2023-04-07T02:45:34.743Z,69.00
2023-04-07T02:48:02.996Z,68.98
2023-04-07T02:50:31.271Z,68.98
2023-04-07T02:53:00.236Z,68.74
2023-04-07T02:55:29.994Z,68.69
2023-04-07T02:57:58.045Z,68.38
2023-04-07T03:00:26.803Z,68.22
2023-04-07T03:02:55.338Z,68.13
2023-04-07T03:05:24.247Z,68.20
2023-04-07T03:07:53.145Z,68.20
2023-04-07T03:10:21.453Z,68.01
2023-04-07T03:12:51.019Z,68.04
2023-04-07T03:15:19.332Z,68.00
2023-04-07T03:17:47.911Z,68.02
2023-04-07T03:20:17.167Z,67.93
2023-04-07T03:22:47.391Z,67.83
2023-04-07T03:25:15.441Z,67.90
2023-04-07T03:27:43.481Z,68.13
2023-04-07T03:30:14.035Z,68.22
2023-04-07T03:32:42.163Z,68.31
2023-04-07T03:35:12.224Z,68.22
2023-04-07T03:37:41.283Z,68.29
2023-04-07T03:40:10.029Z,68.46
2023-04-07T03:42:38.046Z,68.54
2023-04-07T03:45:08.126Z,68.64
2023-04-07T03:47:37.968Z,68.91
2023-04-07T03:50:07.074Z,69.22
2023-04-07T03:52:36.148Z,69.27
2023-04-07T03:55:04.429Z,69.31
2023-04-07T03:57:32.485Z,69.27
2023-04-07T04:00:00.534Z,69.09
2023-04-07T04:02:28.607Z,68.94
2023-04-07T04:04:58.037Z,68.78
2023-04-07T04:07:27.188Z,68.77
2023-04-07T04:09:56.200Z,68.82
2023-04-07T04:12:24.532Z,68.83
2023-04-07T04:14:52.935Z,68.83
2023-04-07T04:17:21.035Z,68.98
2023-04-07T04:19:49.250Z,68.85
2023-04-07T04:22:19.440Z,68.88
2023-04-07T04:24:47.924Z,68.78
2023-04-07T04:27:16.299Z,68.68
2023-04-07T04:29:44.618Z,68.78
2023-04-07T04:32:13.016Z,69.34
2023-04-07T04:34:42.086Z,69.74
2023-04-07T04:37:10.361Z,69.92
2023-04-07T04:39:39.972Z,70.46
2023-04-07T04:42:08.483Z,70.88
2023-04-07T04:44:36.793Z,71.11
2023-04-07T04:47:04.980Z,71.43
2023-04-07T04:49:33.441Z,71.80
2023-04-07T04:52:01.935Z,72.06
2023-04-07T04:54:30.365Z,72.50
2023-04-07T04:56:59.897Z,72.85
2023-04-07T04:59:28.284Z,73.34
2023-04-07T05:01:56.906Z,73.88
2023-04-07T05:04:25.653Z,74.00
2023-04-07T05:06:54.048Z,73.99
2023-04-07T05:09:22.829Z,74.07
2023-04-07T05:11:51.048Z,74.22
2023-04-07T05:14:21.063Z,74.10
2023-04-07T05:16:49.257Z,73.90
2023-04-07T05:19:17.289Z,73.62
2023-04-07T05:21:45.478Z,73.38
2023-04-07T05:24:13.607Z,73.11
2023-04-07T05:26:41.759Z,72.64
2023-04-07T05:29:09.799Z,71.58
2023-04-07T05:31:40.405Z,70.52
2023-04-07T05:34:08.543Z,69.33
2023-04-07T05:36:36.668Z,68.29
2023-04-07T05:39:05.138Z,66.97
2023-04-07T05:41:33.242Z,64.26
2023-04-07T05:44:01.354Z,63.49
2023-04-07T05:46:29.864Z,61.15
2023-04-07T05:49:02.638Z,60.96
2023-04-07T05:51:35.752Z,61.09
2023-04-07T05:54:04.452Z,58.18
2023-04-07T05:56:32.982Z,56.35
2023-04-07T05:59:02.003Z,55.05
2023-04-07T06:01:30.787Z,53.30
2023-04-07T06:04:01.583Z,52.77
2023-04-07T06:06:31.393Z,52.96
2023-04-07T06:09:00.926Z,52.40
2023-04-07T06:11:29.405Z,52.59
2023-04-07T06:13:57.529Z,55.51
2023-04-07T06:16:25.535Z,57.38
2023-04-07T06:18:53.652Z,58.59
2023-04-07T06:21:23.078Z,58.66
2023-04-07T06:23:51.462Z,59.03
2023-04-07T06:26:19.968Z,59.10
2023-04-07T06:28:48.946Z,59.75
2023-04-07T06:31:18.707Z,60.06
2023-04-07T06:33:47.685Z,59.76
2023-04-07T06:36:15.899Z,59.26
2023-04-07T06:38:45.593Z,58.61
2023-04-07T06:41:17.236Z,58.58
2023-04-07T06:43:45.641Z,58.72
2023-04-07T06:46:14.189Z,58.62
2023-04-07T06:48:42.865Z,57.98
2023-04-07T06:51:11.332Z,56.43
2023-04-07T06:53:39.396Z,56.27
2023-04-07T06:56:10.831Z,57.29
2023-04-07T06:58:39.109Z,57.85
2023-04-07T07:01:07.532Z,58.35
2023-04-07T07:03:36.266Z,57.91
2023-04-07T07:06:04.491Z,57.33
2023-04-07T07:08:34.548Z,57.15
2023-04-07T07:11:03.074Z,57.04
2023-04-07T07:13:32.527Z,56.56
2023-04-07T07:16:00.899Z,55.33
2023-04-07T07:18:31.544Z,54.26
2023-04-07T07:21:00.256Z,52.71
2023-04-07T07:23:28.217Z,50.90
2023-04-07T07:25:56.290Z,50.30
2023-04-07T07:28:24.316Z,47.93
2023-04-07T07:30:54.336Z,46.82
2023-04-07T07:33:22.831Z,46.32
2023-04-07T07:35:50.834Z,44.87
2023-04-07T07:38:21.246Z,45.28
2023-04-07T07:40:49.442Z,44.62
2023-04-07T07:43:18.059Z,42.77
2023-04-07T07:45:47.163Z,43.43
2023-04-07T07:48:16.562Z,43.63
2023-04-07T07:50:45.004Z,43.04
2023-04-07T07:53:13.306Z,43.03
2023-04-07T07:55:42.355Z,44.08
2023-04-07T07:58:12.513Z,44.35
2023-04-07T08:00:41.235Z,44.37
2023-04-07T08:03:09.457Z,43.60
2023-04-07T08:05:39.230Z,44.03
2023-04-07T08:08:08.640Z,44.74
2023-04-07T08:10:41.576Z,46.50
2023-04-07T08:13:09.675Z,47.34
2023-04-07T08:15:37.763Z,46.75
2023-04-07T08:18:07.482Z,47.01
2023-04-07T08:20:36.454Z,48.24
2023-04-07T08:23:07.472Z,48.21
2023-04-07T08:25:40.006Z,49.05
2023-04-07T08:28:08.113Z,50.02
2023-04-07T08:30:38.158Z,51.13
2023-04-07T08:33:07.252Z,52.07
2023-04-07T08:35:35.954Z,52.77
2023-04-07T08:38:04.021Z,53.09
2023-04-07T08:40:33.755Z,53.66
2023-04-07T08:43:02.518Z,53.59
2023-04-07T08:45:31.342Z,54.00
2023-04-07T08:48:00.437Z,52.73
2023-04-07T08:50:29.060Z,53.31
2023-04-07T08:52:58.264Z,53.40
2023-04-07T08:55:27.333Z,52.43
2023-04-07T08:57:57.201Z,52.00
2023-04-07T09:00:25.352Z,51.76
2023-04-07T09:02:53.643Z,50.97
2023-04-07T09:05:22.480Z,50.63
2023-04-07T09:07:52.139Z,49.79
2023-04-07T09:10:21.712Z,50.12
2023-04-07T09:12:49.769Z,50.09
2023-04-07T09:15:19.363Z,50.45
2023-04-07T09:17:47.455Z,50.23
2023-04-07T09:20:16.109Z,49.94
2023-04-07T09:22:46.156Z,49.34
2023-04-07T09:25:16.543Z,50.00
2023-04-07T09:28:02.693Z,50.19
2023-04-07T09:30:33.606Z,50.91
2023-04-07T09:33:02.810Z,50.91
2023-04-07T09:35:32.193Z,50.68
2023-04-07T09:38:05.781Z,49.87
2023-04-07T09:40:33.840Z,50.06
2023-04-07T09:43:03.519Z,49.51
2023-04-07T09:45:36.794Z,48.82
2023-04-07T09:48:09.227Z,44.32
2023-04-07T09:50:39.964Z,43.55
2023-04-07T09:53:08.473Z,43.88
2023-04-07T09:55:36.881Z,44.06
2023-04-07T09:58:06.571Z,44.87
2023-04-07T10:00:36.981Z,45.64
2023-04-07T10:03:05.926Z,44.78
2023-04-07T10:05:35.630Z,44.97
2023-04-07T10:08:05.404Z,45.70
2023-04-07T10:10:33.677Z,46.70
2023-04-07T10:13:02.647Z,47.39
2023-04-07T10:15:31.785Z,47.19
2023-04-07T10:18:01.703Z,47.28
2023-04-07T10:20:31.548Z,47.18
2023-04-07T10:23:06.136Z,46.80
2023-04-07T10:25:36.502Z,45.64
2023-04-07T10:28:07.260Z,45.89
2023-04-07T10:30:35.675Z,46.28
2023-04-07T10:33:05.772Z,47.12
2023-04-07T10:36:05.013Z,46.40
2023-04-07T10:38:33.803Z,46.38
2023-04-07T10:41:02.249Z,47.00
2023-04-07T10:43:39.747Z,45.90
2023-04-07T10:46:07.793Z,46.05
2023-04-07T10:48:37.478Z,45.93
2023-04-07T10:51:19.057Z,45.91
2023-04-07T10:54:27.902Z,46.52
2023-04-07T10:57:11.945Z,45.38
2023-04-07T10:59:43.478Z,45.38
2023-04-07T11:02:34.939Z,44.90
2023-04-07T11:05:06.689Z,45.64
2023-04-07T11:07:55.368Z,45.61
2023-04-07T11:10:23.459Z,45.28
2023-04-07T11:13:03.176Z,43.82
2023-04-07T11:15:31.776Z,44.33
2023-04-07T11:18:11.152Z,44.03
2023-04-07T11:20:55.603Z,41.87
2023-04-07T11:23:27.392Z,42.74
2023-04-07T11:26:01.756Z,43.99
2023-04-07T11:28:30.400Z,43.08
2023-04-07T11:31:00.528Z,43.26
2023-04-07T11:33:31.515Z,43.73
2023-04-07T11:36:02.420Z,44.07
2023-04-07T11:38:32.557Z,44.44
2023-04-07T11:41:12.436Z,45.85
2023-04-07T11:43:42.173Z,46.42
2023-04-07T11:46:12.030Z,48.36
2023-04-07T11:48:41.815Z,49.14
2023-04-07T11:51:19.386Z,50.84
2023-04-07T11:53:48.776Z,51.33
2023-04-07T11:56:19.232Z,51.98
2023-04-07T11:58:51.955Z,52.70
2023-04-07T12:01:20.574Z,54.25
2023-04-07T12:04:03.284Z,55.49
2023-04-07T12:06:34.980Z,57.85
2023-04-07T12:09:03.861Z,59.53
2023-04-07T12:11:37.745Z,61.65
2023-04-07T12:14:06.724Z,64.45
2023-04-07T12:16:39.013Z,65.95
2023-04-07T12:19:06.991Z,67.56
2023-04-07T12:21:36.807Z,70.09
2023-04-07T12:24:04.847Z,72.12
2023-04-07T12:26:32.905Z,71.48
2023-04-07T12:29:05.536Z,72.14
2023-04-07T12:31:34.248Z,74.22
2023-04-07T12:34:02.569Z,74.62
2023-04-07T12:36:30.612Z,74.51
2023-04-07T12:39:00.501Z,75.94
2023-04-07T12:41:28.823Z,76.03
2023-04-07T12:43:57.245Z,77.56
2023-04-07T12:46:25.566Z,77.17
2023-04-07T12:48:53.650Z,77.62
2023-04-07T12:51:22.294Z,78.92
2023-04-07T12:53:50.667Z,79.89
2023-04-07T12:56:22.469Z,80.23
2023-04-07T12:58:50.852Z,81.07
2023-04-07T13:01:19.555Z,80.41
2023-04-07T13:03:48.219Z,81.15
2023-04-07T13:06:17.892Z,81.62
2023-04-07T13:08:46.267Z,82.29
2023-04-07T13:11:14.441Z,82.45
2023-04-07T13:13:46.235Z,82.69
2023-04-07T13:16:14.396Z,83.16
2023-04-07T13:18:42.818Z,83.24
2023-04-07T13:21:42.988Z,83.31
2023-04-07T13:23:59.450Z,83.89
2023-04-07T13:26:28.336Z,84.23
2023-04-07T13:28:57.889Z,84.36
2023-04-07T13:31:26.416Z,83.81
2023-04-07T13:33:54.519Z,83.24
2023-04-07T13:36:23.607Z,83.99
2023-04-07T13:38:51.627Z,84.66
2023-04-07T13:41:21.544Z,84.30
2023-04-07T13:43:52.168Z,84.09
2023-04-07T13:46:28.388Z,84.51
2023-04-07T13:48:57.458Z,85.04
2023-04-07T13:51:25.746Z,84.68
2023-04-07T13:53:54.281Z,84.79
2023-04-07T13:56:22.559Z,85.15
2023-04-07T13:58:50.626Z,84.97
2023-04-07T14:01:18.733Z,84.95
2023-04-07T14:03:49.624Z,84.60
2023-04-07T14:06:18.190Z,84.79
2023-04-07T14:08:46.629Z,84.68
2023-04-07T14:11:18.516Z,84.83
2023-04-07T14:13:46.880Z,85.14
2023-04-07T14:16:15.547Z,85.72
2023-04-07T14:18:43.913Z,85.84
2023-04-07T14:21:13.440Z,86.19
2023-04-07T14:23:42.312Z,86.23
2023-04-07T14:26:11.655Z,86.43
2023-04-07T14:28:40.503Z,86.17
2023-04-07T14:31:13.684Z,86.49
2023-04-07T14:33:42.138Z,86.63
2023-04-07T14:36:10.621Z,86.33
2023-04-07T14:38:39.983Z,86.46
2023-04-07T14:41:10.716Z,86.10
2023-04-07T14:43:39.710Z,86.13
2023-04-07T14:46:09.352Z,86.10
2023-04-07T14:48:38.177Z,86.38
2023-04-07T14:51:12.964Z,86.47
2023-04-07T14:53:43.405Z,86.83
2023-04-07T14:56:11.465Z,86.86
2023-04-07T14:58:40.672Z,87.19
2023-04-07T15:01:09.060Z,86.88
2023-04-07T15:03:37.207Z,86.73
2023-04-07T15:06:08.128Z,87.20
2023-04-07T15:08:39.328Z,87.76
2023-04-07T15:11:09.120Z,88.10
2023-04-07T15:13:37.580Z,88.45
2023-04-07T15:16:12.156Z,88.78
2023-04-07T15:18:41.560Z,88.94
2023-04-07T15:21:10.220Z,89.13
2023-04-07T15:23:39.065Z,89.19
2023-04-07T15:26:09.413Z,89.20
2023-04-07T15:28:37.549Z,89.02
2023-04-07T15:31:08.934Z,88.95
2023-04-07T15:33:38.086Z,89.25
2023-04-07T15:36:08.155Z,89.48
2023-04-07T15:38:36.372Z,89.54
2023-04-07T15:41:04.960Z,89.73
2023-04-07T15:43:34.604Z,89.88
2023-04-07T15:46:04.386Z,90.05
2023-04-07T15:48:32.928Z,90.27
2023-04-07T15:51:03.995Z,90.49
2023-04-07T15:53:32.123Z,90.54
2023-04-07T15:56:00.267Z,90.64
2023-04-07T15:58:28.401Z,90.76
2023-04-07T16:00:57.718Z,90.83
2023-04-07T16:03:29.066Z,91.01
2023-04-07T16:05:57.618Z,91.20
2023-04-07T16:08:28.765Z,91.12
2023-04-07T16:10:57.231Z,91.26
2023-04-07T16:13:25.725Z,91.20
2023-04-07T16:15:58.463Z,91.20
2023-04-07T16:18:26.570Z,91.28
2023-04-07T16:20:54.658Z,91.51
2023-04-07T16:23:23.305Z,91.43
2023-04-07T16:25:51.771Z,91.58
2023-04-07T16:28:19.826Z,91.72
2023-04-07T16:30:47.803Z,91.65
2023-04-07T16:33:17.756Z,91.71
2023-04-07T16:35:45.996Z,91.75
2023-04-07T16:38:14.326Z,91.77
2023-04-07T16:40:47.864Z,91.82
2023-04-07T16:43:21.782Z,91.92
2023-04-07T16:45:51.893Z,92.09
2023-04-07T16:48:22.492Z,92.22
2023-04-07T16:50:50.738Z,92.27
2023-04-07T16:53:21.213Z,92.36
2023-04-07T16:55:49.901Z,92.44
2023-04-07T16:58:19.578Z,92.50
2023-04-07T17:00:47.802Z,92.47
2023-04-07T17:03:16.270Z,92.53
2023-04-07T17:05:47.195Z,92.61
2023-04-07T17:08:15.513Z,92.74
2023-04-07T17:10:43.819Z,92.88
2023-04-07T17:13:12.340Z,92.93
2023-04-07T17:15:40.492Z,92.97
2023-04-07T17:18:08.821Z,93.07
2023-04-07T17:20:37.754Z,93.17
2023-04-07T17:23:07.338Z,93.23
2023-04-07T17:25:35.757Z,93.25
2023-04-07T17:28:04.499Z,93.25
2023-04-07T17:30:33.626Z,93.29
2023-04-07T17:33:03.605Z,93.38
2023-04-07T17:35:33.283Z,93.43
2023-04-07T17:38:02.782Z,93.51
2023-04-07T17:40:33.190Z,93.49
2023-04-07T17:43:01.308Z,93.57
2023-04-07T17:45:33.202Z,93.60
2023-04-07T17:48:04.764Z,93.61
2023-04-07T17:50:32.830Z,93.65
2023-04-07T17:53:02.950Z,93.67
2023-04-07T17:55:32.338Z,93.69
2023-04-07T17:58:02.277Z,93.74
2023-04-07T18:00:30.746Z,93.76
2023-04-07T18:02:58.978Z,93.81
2023-04-07T18:05:28.410Z,93.90
2023-04-07T18:07:56.476Z,93.92
2023-04-07T18:10:24.640Z,94.00
2023-04-07T18:12:54.084Z,94.04
2023-04-07T18:15:22.411Z,94.09
2023-04-07T18:17:53.299Z,94.07
2023-04-07T18:20:22.752Z,94.07
2023-04-07T18:22:51.860Z,94.11
2023-04-07T18:25:22.840Z,94.18
2023-04-07T18:27:51.015Z,94.22
2023-04-07T18:30:21.392Z,94.26
2023-04-07T18:32:50.108Z,94.29
2023-04-07T18:35:18.105Z,94.34
2023-04-07T18:37:46.529Z,94.38
2023-04-07T18:40:16.254Z,94.36
2023-04-07T18:42:44.373Z,94.41
2023-04-07T18:45:12.900Z,94.46
2023-04-07T18:47:42.407Z,94.55
2023-04-07T18:50:11.471Z,94.57
2023-04-07T18:52:39.703Z,94.61
2023-04-07T18:55:09.152Z,94.64
2023-04-07T18:57:37.340Z,94.69
2023-04-07T19:00:06.614Z,94.69
2023-04-07T19:02:34.908Z,94.70
2023-04-07T19:05:05.689Z,94.70
2023-04-07T19:07:36.169Z,94.69
2023-04-07T19:10:04.321Z,94.74
2023-04-07T19:12:32.465Z,94.81
2023-04-07T19:15:00.848Z,94.79
2023-04-07T19:17:30.856Z,94.82
2023-04-07T19:19:59.204Z,94.74
2023-04-07T19:22:28.860Z,94.74
2023-04-07T19:24:56.900Z,94.72
2023-04-07T19:27:26.002Z,94.77
2023-04-07T19:29:54.012Z,94.81
2023-04-07T19:32:22.156Z,94.82
2023-04-07T19:34:50.698Z,94.88
2023-04-07T19:37:18.877Z,94.93
2023-04-07T19:40:01.822Z,94.93
2023-04-07T19:42:30.705Z,95.01
2023-04-07T19:45:00.467Z,95.00
2023-04-07T19:47:28.894Z,95.10
2023-04-07T19:49:56.945Z,95.09
2023-04-07T19:52:26.892Z,95.15
2023-04-07T19:54:57.319Z,95.19
2023-04-07T19:57:26.192Z,95.21
2023-04-07T19:59:55.783Z,95.23
2023-04-07T20:02:24.347Z,95.24
2023-04-07T20:04:52.519Z,95.26
2023-04-07T20:07:20.806Z,95.24
2023-04-07T20:09:50.586Z,95.24
2023-04-07T20:12:20.241Z,95.30
2023-04-07T20:14:50.927Z,95.37
2023-04-07T20:17:18.932Z,95.37
2023-04-07T20:19:48.248Z,95.44
2023-04-07T20:22:16.684Z,95.48
2023-04-07T20:24:44.884Z,95.49
2023-04-07T20:27:13.138Z,95.48
2023-04-07T20:29:42.636Z,95.54
2023-04-07T20:32:10.684Z,95.55
2023-04-07T20:34:40.368Z,95.61
2023-04-07T20:37:08.589Z,95.60
2023-04-07T20:39:36.617Z,95.69
2023-04-07T20:42:04.792Z,95.67
2023-04-07T20:44:33.052Z,95.59
2023-04-07T20:47:08.293Z,95.65
2023-04-07T20:49:37.035Z,95.70
2023-04-07T20:52:06.908Z,95.71
2023-04-07T20:54:35.410Z,95.76
2023-04-07T20:57:03.702Z,95.73
2023-04-07T20:59:32.707Z,95.73
2023-04-07T21:02:02.654Z,95.66
2023-04-07T21:04:30.999Z,95.76
2023-04-07T21:06:59.159Z,95.76
2023-04-07T21:09:27.864Z,95.78
2023-04-07T21:11:56.163Z,95.80
2023-04-07T21:14:24.193Z,95.87
2023-04-07T21:16:52.864Z,95.84
2023-04-07T21:19:22.947Z,95.84
2023-04-07T21:21:51.340Z,95.86
2023-04-07T21:24:22.281Z,95.88
2023-04-07T21:26:50.393Z,95.92
2023-04-07T21:29:20.914Z,95.93
2023-04-07T21:31:49.100Z,95.92
2023-04-07T21:34:19.398Z,95.93
2023-04-07T21:36:51.310Z,95.95
2023-04-07T21:39:19.352Z,95.98
2023-04-07T21:41:47.500Z,95.99
2023-04-07T21:44:20.221Z,96.01
2023-04-07T21:46:51.035Z,96.06
2023-04-07T21:49:22.183Z,96.08
2023-04-07T21:51:52.011Z,96.07
2023-04-07T21:54:20.372Z,96.13
2023-04-07T21:56:51.602Z,96.17
2023-04-07T21:59:20.036Z,96.15
2023-04-07T22:01:48.412Z,96.17
2023-04-07T22:04:16.493Z,96.18
2023-04-07T22:06:44.709Z,96.20
2023-04-07T22:09:15.065Z,96.25
2023-04-07T22:11:43.362Z,96.26
2023-04-07T22:14:11.502Z,96.24
2023-04-07T22:16:39.746Z,96.30
2023-04-07T22:19:07.903Z,96.31
2023-04-07T22:21:36.003Z,96.36
2023-04-07T22:24:05.397Z,96.39
2023-04-07T22:26:34.786Z,96.45
2023-04-07T22:29:02.806Z,96.46
2023-04-07T22:31:32.395Z,96.53
2023-04-07T22:34:00.757Z,96.51
2023-04-07T22:36:29.182Z,96.56
2023-04-07T22:38:58.617Z,96.57
2023-04-07T22:41:27.117Z,96.60
2023-04-07T22:43:56.909Z,96.56
2023-04-07T22:46:25.367Z,96.56
2023-04-07T22:48:53.870Z,96.59
2023-04-07T22:51:22.007Z,96.60
2023-04-07T22:53:50.146Z,96.66
2023-04-07T22:56:19.240Z,96.68
2023-04-07T22:58:48.134Z,96.72
2023-04-07T23:01:18.469Z,96.71
2023-04-07T23:03:46.665Z,96.74
2023-04-07T23:06:14.834Z,96.76
2023-04-07T23:08:42.861Z,96.75
2023-04-07T23:11:11.008Z,96.78
2023-04-07T23:13:39.773Z,96.82
2023-04-07T23:16:12.395Z,96.82
2023-04-07T23:18:42.761Z,96.89
2023-04-07T23:21:13.237Z,96.86
2023-04-07T23:23:41.652Z,96.85
2023-04-07T23:26:09.881Z,96.83
2023-04-07T23:28:38.312Z,96.87
2023-04-07T23:31:07.213Z,96.89
2023-04-07T23:33:36.418Z,96.92
2023-04-07T23:36:07.221Z,96.93
2023-04-07T23:38:36.456Z,96.94
2023-04-07T23:41:04.761Z,96.94
2023-04-07T23:43:34.493Z,96.98
2023-04-07T23:46:02.997Z,97.04
2023-04-07T23:48:31.863Z,97.05
2023-04-07T23:51:01.503Z,97.08
2023-04-07T23:53:30.968Z,97.08
2023-04-07T23:55:58.935Z,97.09
2023-04-07T23:58:27.255Z,97.12
